Time;durP1;ratioP1;P1;durP2;ratioP2;P2;SDS_P1;SDS_P2;PMS_P1;PMS_P2;Temp;Humidity;BMP_temperature;BMP_pressure;BME280_temperature;BME280_humidity;BME280_pressure;Samples;Min_cycle;Max_cycle;Signal;HPM_P1;HPM_P2
2022/09/08 00:00:27;;;;;;;8.50;4.80;;;;;;;12.29;58.37;99821.40;216234;1272;139969;-65
2022/09/08 00:05:44;;;;;;;6.80;4.10;;;;;;;12.30;58.05;99820.52;216241;1274;139819;-65
2022/09/08 00:10:53;;;;;;;5.90;3.60;;;;;;;12.33;57.90;99818.80;215746;1273;142056;-64
2022/09/08 00:16:01;;;;;;;6.70;3.70;;;;;;;12.35;57.86;99818.67;215984;1273;139385;-66
2022/09/08 00:21:12;;;;;;;5.60;3.30;;;;;;;12.31;58.05;99812.58;213899;1274;139109;-65
2022/09/08 00:26:18;;;;;;;6.00;4.10;;;;;;;12.24;57.52;99805.52;213858;1274;139845;-65
2022/09/08 00:31:22;;;;;;;4.60;3.50;;;;;;;12.18;57.79;99800.19;214980;1273;141027;-66
2022/09/08 00:36:27;;;;;;;6.10;3.90;;;;;;;12.13;57.96;99795.41;214239;1274;139903;-65
2022/09/08 00:41:31;;;;;;;5.50;4.00;;;;;;;12.12;57.96;99788.89;214282;1273;140065;-67
2022/09/08 00:46:41;;;;;;;10.70;4.70;;;;;;;12.08;57.84;99787.10;214440;1273;140055;-65
2022/09/08 00:51:50;;;;;;;5.40;4.40;;;;;;;12.07;57.82;99791.03;213587;1274;140140;-65
2022/09/08 00:56:57;;;;;;;4.50;3.30;;;;;;;12.04;58.14;99783.98;214491;1274;140041;-65
2022/09/08 01:02:22;;;;;;;8.90;4.60;;;;;;;12.02;58.12;99784.01;214729;1273;139765;-65
2022/09/08 01:13:02;;;;;;;10.80;4.90;;;;;;;11.97;58.41;99786.05;213703;1273;139760;-65
2022/09/08 01:18:06;;;;;;;5.70;4.20;;;;;;;11.90;58.42;99783.60;214247;1274;139502;-65
2022/09/08 01:23:47;;;;;;;7.50;4.60;;;;;;;11.84;58.97;99793.48;214658;1272;139695;-65
2022/09/08 01:29:01;;;;;;;6.30;4.90;;;;;;;11.80;59.36;99795.14;214788;1273;140302;-65
2022/09/08 01:34:06;;;;;;;7.70;4.70;;;;;;;11.79;59.84;99789.89;214906;1274;140232;-65
2022/09/08 01:39:10;;;;;;;8.60;4.80;;;;;;;11.77;60.22;99786.38;215127;1273;140666;-65
2022/09/08 01:44:14;;;;;;;10.70;5.30;;;;;;;11.71;60.47;99788.64;215061;1272;139590;-65
2022/09/08 01:49:19;;;;;;;6.10;4.80;;;;;;;11.63;60.68;99789.09;214945;1274;140370;-65
2022/09/08 01:54:24;;;;;;;7.30;4.40;;;;;;;11.46;60.80;99778.41;216360;1273;139628;-65
2022/09/08 01:59:28;;;;;;;10.30;4.90;;;;;;;11.37;61.39;99771.95;216197;1273;140719;-65
2022/09/08 02:04:31;;;;;;;10.30;4.50;;;;;;;11.32;61.66;99756.92;215891;1273;141808;-65
2022/09/08 02:09:36;;;;;;;7.60;5.30;;;;;;;11.28;61.87;99757.17;215388;1274;140654;-64
2022/09/08 02:14:41;;;;;;;8.90;5.30;;;;;;;11.29;62.10;99759.06;216007;1273;143181;-65
2022/09/08 02:19:46;;;;;;;11.10;5.00;;;;;;;11.34;62.09;99757.98;214254;1274;144072;-65
2022/09/08 02:24:51;;;;;;;7.40;5.70;;;;;;;11.40;62.22;99750.61;213484;1273;141591;-65
2022/09/08 02:29:55;;;;;;;11.80;6.50;;;;;;;11.40;62.22;99746.77;214197;1273;142634;-66
2022/09/08 02:34:59;;;;;;;9.50;5.60;;;;;;;11.31;62.48;99746.39;213719;1274;141158;-63
2022/09/08 02:40:05;;;;;;;10.70;5.10;;;;;;;11.24;62.61;99746.68;214572;1273;140330;-65
2022/09/08 02:45:11;;;;;;;8.00;5.00;;;;;;;11.19;62.78;99733.31;214328;1273;141792;-64
2022/09/08 02:50:15;;;;;;;8.50;5.50;;;;;;;11.11;62.77;99735.23;214147;1273;141049;-65
2022/09/08 02:55:23;;;;;;;8.60;5.10;;;;;;;11.03;62.46;99733.89;214905;1273;139600;-65
2022/09/08 03:00:32;;;;;;;10.00;5.10;;;;;;;10.99;62.85;99729.24;214186;1273;141072;-63
2022/09/08 03:05:36;;;;;;;11.80;5.20;;;;;;;10.98;62.98;99733.41;214599;1272;140493;-64
2022/09/08 03:10:40;;;;;;;12.60;5.10;;;;;;;10.98;62.98;99735.48;214845;1274;151744;-64
2022/09/08 03:15:47;;;;;;;12.50;6.20;;;;;;;11.04;63.13;99731.25;214448;1274;142063;-66
2022/09/08 03:21:08;;;;;;;6.20;4.90;;;;;;;11.04;63.13;99727.63;215008;1273;140222;-65
2022/09/08 03:26:17;;;;;;;5.20;4.70;;;;;;;11.02;62.64;99720.65;214638;1274;141673;-65
2022/09/08 03:31:28;;;;;;;7.40;5.00;;;;;;;10.98;62.73;99721.98;213948;1273;140262;-65
2022/09/08 03:36:32;;;;;;;6.00;5.30;;;;;;;10.93;62.52;99727.05;214898;1273;140567;-65
2022/09/08 03:41:36;;;;;;;22.10;7.50;;;;;;;10.92;62.85;99724.25;215414;1273;140148;-65
2022/09/08 03:46:41;;;;;;;6.90;4.90;;;;;;;10.87;62.83;99721.44;215712;1273;140372;-65
2022/09/08 03:51:46;;;;;;;22.70;6.50;;;;;;;10.82;62.87;99714.39;216370;1271;140469;-65
2022/09/08 03:56:51;;;;;;;11.20;7.00;;;;;;;10.73;63.05;99715.18;216336;1273;142035;-65
2022/09/08 04:01:59;;;;;;;14.00;7.10;;;;;;;10.68;62.93;99725.96;216124;1272;141069;-64
2022/09/08 04:07:04;;;;;;;16.20;5.20;;;;;;;10.66;63.30;99717.61;216146;1273;139760;-65
2022/09/08 04:12:09;;;;;;;10.80;5.70;;;;;;;10.61;63.35;99716.96;215870;1274;140175;-66
2022/09/08 04:17:13;;;;;;;6.00;5.20;;;;;;;10.57;63.64;99708.46;214918;1273;140271;-66
2022/09/08 04:22:21;;;;;;;7.90;4.80;;;;;;;10.60;63.76;99701.23;213541;1274;139491;-64
2022/09/08 04:27:27;;;;;;;7.40;4.50;;;;;;;10.66;63.62;99703.38;215004;1273;139646;-66
2022/09/08 04:32:30;;;;;;;7.10;5.00;;;;;;;10.73;63.69;99714.11;213655;1273;139947;-65
2022/09/08 04:37:35;;;;;;;6.30;5.10;;;;;;;10.85;63.85;99721.60;213578;1274;139797;-65
2022/09/08 04:42:39;;;;;;;19.10;6.90;;;;;;;11.00;63.61;99729.00;214343;1272;140655;-65
2022/09/08 04:47:44;;;;;;;9.70;5.70;;;;;;;11.19;63.29;99728.07;213256;1273;140552;-67
2022/09/08 04:52:48;;;;;;;5.90;4.10;;;;;;;11.42;62.60;99724.05;214086;1273;139553;-66
2022/09/08 04:57:53;;;;;;;6.20;5.00;;;;;;;11.65;61.96;99723.06;213637;1273;139038;-66
2022/09/08 05:02:57;;;;;;;9.90;4.40;;;;;;;11.87;61.31;99719.07;214037;1274;139770;-66
2022/09/08 05:08:02;;;;;;;9.10;5.20;;;;;;;12.05;60.73;99713.79;214990;1273;140042;-66
2022/09/08 05:13:05;;;;;;;13.50;4.20;;;;;;;12.22;60.46;99704.15;213439;1274;141210;-65
2022/09/08 05:18:09;;;;;;;6.70;5.30;;;;;;;12.36;59.79;99710.27;214904;1273;141964;-66
2022/09/08 05:23:14;;;;;;;5.50;3.80;;;;;;;12.47;59.58;99715.73;214208;1273;140314;-65
2022/09/08 05:28:19;;;;;;;10.00;5.10;;;;;;;12.59;59.09;99708.69;214507;1273;142553;-66
2022/09/08 05:33:23;;;;;;;7.20;4.50;;;;;;;12.70;58.56;99704.67;215174;1273;140864;-66
2022/09/08 05:38:28;;;;;;;10.00;4.80;;;;;;;12.87;58.48;99706.83;215904;1273;141425;-66
2022/09/08 05:43:33;;;;;;;8.00;5.10;;;;;;;13.06;58.10;99708.61;216086;1273;140714;-66
2022/09/08 05:48:37;;;;;;;15.80;5.60;;;;;;;13.33;57.88;99712.82;216117;1274;139380;-66
2022/09/08 05:53:41;;;;;;;9.70;5.10;;;;;;;13.60;57.80;99704.92;216004;1274;141287;-66
2022/09/08 05:58:52;;;;;;;15.00;4.70;;;;;;;13.84;57.04;99696.98;216201;1273;140512;-65
2022/09/08 06:04:02;;;;;;;6.80;4.60;;;;;;;14.04;57.00;99707.88;216150;1273;139506;-65
2022/09/08 06:09:07;;;;;;;10.00;5.20;;;;;;;14.24;56.78;99715.69;215414;1274;139728;-65
2022/09/08 06:14:13;;;;;;;8.90;4.80;;;;;;;14.44;56.72;99712.81;215618;1273;139635;-64
2022/09/08 06:19:17;;;;;;;10.00;4.80;;;;;;;14.63;56.23;99707.45;213719;1271;163217;-65
2022/09/08 06:24:20;;;;;;;17.00;5.00;;;;;;;14.80;55.59;99698.86;213672;1275;140672;-64
2022/09/08 06:29:34;;;;;;;16.10;4.80;;;;;;;14.96;55.47;99708.64;214782;1274;140866;-64
2022/09/08 06:34:44;;;;;;;9.70;5.00;;;;;;;15.08;55.28;99719.02;214955;1274;140449;-64
2022/09/08 06:40:00;;;;;;;15.00;6.30;;;;;;;15.29;55.38;99725.90;213204;1274;139890;-66
2022/09/08 06:45:10;;;;;;;8.10;5.30;;;;;;;15.54;54.93;99728.79;215189;1273;139820;-66
2022/09/08 06:50:15;;;;;;;10.60;5.20;;;;;;;15.62;54.52;99736.13;213769;1274;139302;-66
2022/09/08 06:55:35;;;;;;;11.40;5.40;;;;;;;15.87;54.58;99740.17;214469;1273;140054;-66
2022/09/08 07:00:48;;;;;;;5.40;4.70;;;;;;;16.24;54.49;99748.36;213910;1272;140919;-66
2022/09/08 07:06:02;;;;;;;11.70;5.70;;;;;;;16.63;54.11;99747.10;214175;1273;138865;-66
2022/09/08 07:11:28;;;;;;;11.20;6.80;;;;;;;16.97;53.83;99744.40;214396;1274;140613;-65
2022/09/08 07:16:59;;;;;;;7.80;5.20;;;;;;;17.66;53.27;99736.83;213596;1274;139728;-66
2022/09/08 07:22:15;;;;;;;15.00;6.00;;;;;;;18.96;52.60;99723.21;214722;1274;140471;-66
2022/09/08 07:27:20;;;;;;;14.00;6.30;;;;;;;20.23;51.26;99716.52;213419;1274;140327;-66
2022/09/08 07:32:29;;;;;;;8.60;6.00;;;;;;;21.06;49.70;99710.76;213150;1273;1484633;-66
2022/09/08 07:37:42;;;;;;;11.80;6.80;;;;;;;21.61;48.94;99719.38;214973;1273;140238;-66
2022/09/08 07:42:50;;;;;;;51.40;9.70;;;;;;;22.15;47.88;99710.23;215838;1273;140193;-65
2022/09/08 07:48:12;;;;;;;15.70;6.20;;;;;;;22.79;46.51;99693.23;216318;1274;141580;-65
2022/09/08 07:53:41;;;;;;;11.90;6.70;;;;;;;23.21;45.35;99693.80;215713;1274;140643;-66
2022/09/08 07:59:00;;;;;;;14.50;7.70;;;;;;;23.25;44.47;99701.77;216322;1273;140504;-65
2022/09/08 08:04:16;;;;;;;13.80;5.70;;;;;;;23.12;43.96;99704.85;216138;1273;139773;-65
2022/09/08 08:09:25;;;;;;;;;;;;;;;22.86;43.43;99702.27;216328;1273;139414;-65
2022/09/08 08:14:46;;;;;;;7.60;5.90;;;;;;;22.74;43.87;99692.69;215909;1273;128449;-65
2022/09/08 08:20:06;;;;;;;10.60;5.70;;;;;;;23.03;43.65;99692.35;214062;1274;230746;-64
2022/09/08 08:25:49;;;;;;;9.10;6.40;;;;;;;23.06;43.58;99691.27;214353;1273;140200;-65
2022/09/08 08:30:58;;;;;;;12.80;6.80;;;;;;;23.20;43.76;99705.58;213648;1273;151034;-65
2022/09/08 08:36:09;;;;;;;7.40;5.50;;;;;;;23.41;43.23;99714.07;214358;1276;140213;-65
2022/09/08 08:41:20;;;;;;;8.20;6.10;;;;;;;23.55;42.84;99710.21;214448;1274;139162;-65
2022/09/08 08:46:45;;;;;;;11.10;6.50;;;;;;;23.68;43.00;99704.80;214386;1273;141050;-65
2022/09/08 08:52:24;;;;;;;7.50;5.60;;;;;;;23.41;42.62;99704.34;214300;1274;140286;-65
2022/09/08 08:58:10;;;;;;;13.50;6.40;;;;;;;23.48;42.63;99700.31;214388;1273;139769;-65
2022/09/08 09:03:55;;;;;;;7.10;5.70;;;;;;;23.60;42.63;99701.72;214251;1273;139307;-64
2022/09/08 09:09:27;;;;;;;8.20;4.90;;;;;;;23.85;42.43;99696.98;214147;1273;140017;-66
2022/09/08 09:15:07;;;;;;;8.00;6.70;;;;;;;24.00;41.90;99695.35;213671;1273;140348;-65
2022/09/08 09:20:57;;;;;;;9.20;6.80;;;;;;;23.98;41.09;99688.11;215077;1273;140810;-66
2022/09/08 09:26:22;;;;;;;13.30;5.90;;;;;;;24.13;41.00;99681.08;214124;1273;141227;-66
2022/09/08 09:31:54;;;;;;;10.90;5.80;;;;;;;24.28;40.78;99684.73;215075;1274;139922;-65
2022/09/08 09:37:36;;;;;;;11.20;6.00;;;;;;;24.30;40.28;99676.98;215375;1272;140133;-65
2022/09/08 09:43:19;;;;;;;7.50;5.40;;;;;;;24.18;39.72;99667.65;215890;1273;233273;-66
2022/09/08 09:48:52;;;;;;;11.50;5.40;;;;;;;24.11;39.85;99669.92;216005;1273;139669;-64
2022/09/08 09:54:24;;;;;;;7.70;5.70;;;;;;;24.17;39.55;99672.63;216113;1273;139645;-65
2022/09/08 09:59:41;;;;;;;8.50;4.50;;;;;;;24.15;39.63;99670.08;216255;1273;140601;-65
2022/09/08 10:04:53;;;;;;;7.20;4.50;;;;;;;24.27;39.47;99652.55;215246;1273;139414;-65
2022/09/08 10:10:40;;;;;;;8.00;5.20;;;;;;;24.46;39.06;99647.56;214928;1274;140361;-66
2022/09/08 10:16:22;;;;;;;12.40;4.80;;;;;;;24.52;38.87;99642.17;215015;1274;139698;-67
2022/09/08 10:22:20;;;;;;;6.00;4.80;;;;;;;24.15;38.61;99645.66;214867;1274;140410;-66
2022/09/08 10:27:42;;;;;;;7.50;4.60;;;;;;;24.31;38.54;99642.98;214336;1273;139159;-64
2022/09/08 10:32:53;;;;;;;5.90;5.30;;;;;;;24.75;38.42;99647.42;214606;1275;139614;-65
2022/09/08 10:38:17;;;;;;;5.40;4.40;;;;;;;24.86;37.96;99642.16;214563;1274;139475;-65
2022/09/08 10:44:11;;;;;;;9.10;5.60;;;;;;;24.38;38.04;99634.92;213939;1273;139924;-65
2022/09/08 10:49:55;;;;;;;6.30;4.70;;;;;;;24.45;38.40;99631.87;213979;1274;139361;-65
2022/09/08 10:55:10;;;;;;;8.40;4.80;;;;;;;24.83;38.67;99618.47;213525;1274;140135;-66
2022/09/08 11:00:23;;;;;;;8.40;4.80;;;;;;;25.15;38.13;99619.98;215035;1274;139501;-66
2022/09/08 11:05:41;;;;;;;5.20;4.70;;;;;;;25.24;37.48;99615.48;214027;1274;140040;-64
2022/09/08 11:11:14;;;;;;;8.00;4.30;;;;;;;25.39;37.73;99618.92;214587;1273;139498;-66
2022/09/08 11:16:51;;;;;;;9.00;3.90;;;;;;;25.53;37.46;99618.14;214521;1273;140817;-65
2022/09/08 11:22:04;;;;;;;10.40;5.40;;;;;;;25.79;37.31;99616.88;214389;1273;141904;-67
2022/09/08 11:27:20;;;;;;;13.20;5.60;;;;;;;25.86;36.65;99614.08;215402;1274;139401;-66
2022/09/08 11:32:40;;;;;;;12.30;4.90;;;;;;;25.73;36.56;99618.39;215392;1274;140752;-67
2022/09/08 11:38:23;;;;;;;5.70;4.50;;;;;;;25.58;36.85;99612.09;215351;1273;141841;-65
2022/09/08 11:43:41;;;;;;;8.70;4.40;;;;;;;25.61;36.51;99602.77;214724;1273;140535;-66
2022/09/08 11:49:13;;;;;;;11.80;5.10;;;;;;;25.46;36.49;99601.28;216343;1274;140206;-66
2022/09/08 11:54:52;;;;;;;21.10;5.10;;;;;;;25.23;36.41;99595.16;216392;1273;139691;-67
2022/09/08 12:00:33;;;;;;;8.60;4.40;;;;;;;25.30;36.60;99590.35;216442;1274;141266;-69
2022/09/08 12:06:26;;;;;;;5.20;4.80;;;;;;;25.37;36.60;99584.59;215514;1274;161237;-67
2022/09/08 12:12:16;;;;;;;8.50;4.70;;;;;;;25.53;36.61;99577.20;214267;1274;140009;-68
2022/09/08 12:17:39;;;;;;;12.50;4.80;;;;;;;25.49;36.18;99566.16;214748;1274;141627;-66
2022/09/08 12:22:49;;;;;;;6.20;4.20;;;;;;;25.47;36.07;99561.48;214846;1270;140053;-69
2022/09/08 12:28:12;;;;;;;5.20;4.70;;;;;;;25.43;36.16;99560.33;214918;1274;139779;-69
2022/09/08 12:33:34;;;;;;;7.10;4.30;;;;;;;25.30;36.60;99558.16;214257;1274;140243;-70
2022/09/08 12:39:00;;;;;;;14.80;5.10;;;;;;;25.31;36.47;99547.43;213957;1273;139890;-66
2022/09/08 12:45:00;;;;;;;9.80;5.00;;;;;;;25.27;36.48;99533.12;214027;1272;140289;-67
2022/09/08 12:50:19;;;;;;;8.70;4.90;;;;;;;25.22;36.61;99522.35;212426;1276;139791;-68
2022/09/08 12:55:39;;;;;;;10.50;4.70;;;;;;;25.18;36.69;99514.56;213842;1274;139332;-68
2022/09/08 13:01:19;;;;;;;7.90;5.10;;;;;;;25.09;36.50;99502.94;214151;1274;139892;-67
2022/09/08 13:06:34;;;;;;;8.60;4.60;;;;;;;25.01;36.61;99496.36;214503;1274;141070;-68
2022/09/08 13:12:27;;;;;;;7.60;4.50;;;;;;;24.93;36.69;99487.65;213958;1274;139956;-67
2022/09/08 13:17:50;;;;;;;10.60;5.20;;;;;;;24.83;36.80;99480.80;215340;1274;140085;-68
2022/09/08 13:23:21;;;;;;;4.20;3.80;;;;;;;24.76;36.90;99476.21;214960;1274;142644;-68
2022/09/08 13:28:35;;;;;;;7.80;4.20;;;;;;;24.72;37.30;99474.91;215297;1274;140853;-69
2022/09/08 13:34:05;;;;;;;6.50;5.10;;;;;;;24.66;37.42;99472.98;215119;1274;140540;-68
2022/09/08 13:39:34;;;;;;;14.00;5.10;;;;;;;24.63;37.24;99470.04;215688;1274;140573;-67
2022/09/08 13:44:56;;;;;;;7.40;4.20;;;;;;;24.64;37.17;99454.38;214267;1274;140078;-65
2022/09/08 13:50:33;;;;;;;12.80;4.90;;;;;;;24.61;37.01;99451.77;216259;1274;140361;-66
2022/09/08 13:55:53;;;;;;;11.50;5.20;;;;;;;24.55;37.38;99441.81;216000;1274;140456;-66
2022/09/08 14:00:59;;;;;;;9.70;4.70;;;;;;;24.44;37.37;99436.91;215600;1274;140297;-67
2022/09/08 14:06:14;;;;;;;7.90;4.20;;;;;;;24.38;37.71;99430.38;216154;1272;142191;-68
2022/09/08 14:11:57;;;;;;;12.70;5.00;;;;;;;24.36;37.45;99422.92;215693;1274;140117;-68
2022/09/08 14:17:32;;;;;;;8.00;4.60;;;;;;;24.34;37.51;99421.14;215562;1274;139539;-66
2022/09/08 14:22:50;;;;;;;12.70;5.50;;;;;;;24.37;37.62;99417.43;215578;1274;139733;-65
2022/09/08 14:28:19;;;;;;;13.30;5.10;;;;;;;24.35;37.87;99412.77;214437;1274;140855;-65
2022/09/08 14:33:33;;;;;;;7.80;4.60;;;;;;;24.29;37.73;99409.80;215334;1274;139457;-66
2022/09/08 14:39:00;;;;;;;13.10;5.10;;;;;;;24.16;37.93;99410.14;213687;1274;140108;-66
2022/09/08 14:44:30;;;;;;;16.50;6.20;;;;;;;23.93;37.76;99388.27;213916;1274;139942;-65
2022/09/08 14:50:07;;;;;;;4.90;3.50;;;;;;;23.67;38.11;99376.80;214122;1273;140614;-65
2022/09/08 14:55:24;;;;;;;11.90;5.20;;;;;;;23.38;38.52;99379.21;213425;1274;139816;-65
2022/09/08 15:00:41;;;;;;;9.20;4.80;;;;;;;23.22;38.53;99372.64;213722;1274;141805;-66
2022/09/08 15:05:50;;;;;;;15.80;4.90;;;;;;;23.08;38.88;99375.28;213769;1274;139637;-65
2022/09/08 15:11:09;;;;;;;10.60;5.50;;;;;;;22.93;39.32;99373.16;213331;1274;139608;-65
2022/09/08 15:16:41;;;;;;;5.80;5.00;;;;;;;22.80;39.51;99371.60;213977;1272;141771;-65
2022/09/08 15:21:50;;;;;;;6.90;4.50;;;;;;;22.64;39.56;99365.87;215900;1273;140033;-65
2022/09/08 15:26:59;;;;;;;10.30;5.90;;;;;;;22.54;39.81;99368.10;215263;1274;140823;-66
2022/09/08 15:32:42;;;;;;;5.60;4.40;;;;;;;22.45;40.01;99367.86;215391;1271;141149;-65
2022/09/08 15:37:57;;;;;;;5.70;4.50;;;;;;;22.30;40.01;99368.14;214917;1273;139608;-65
2022/09/08 15:43:08;;;;;;;9.90;4.20;;;;;;;22.20;40.56;99370.54;216169;1274;141400;-65
2022/09/08 15:48:30;;;;;;;12.60;5.40;;;;;;;22.10;40.86;99371.11;216183;1273;140504;-65
2022/09/08 15:53:58;;;;;;;7.30;4.80;;;;;;;22.00;41.32;99364.20;215581;1274;141261;-65
2022/09/08 15:59:18;;;;;;;5.00;4.50;;;;;;;21.88;41.64;99365.58;216070;1272;140453;-66
2022/09/08 16:04:47;;;;;;;14.90;5.60;;;;;;;21.74;41.69;99366.11;216147;1273;140465;-66
2022/09/08 16:10:28;;;;;;;12.40;5.90;;;;;;;21.57;41.73;99355.50;216236;1273;140111;-65
2022/09/08 16:15:58;;;;;;;10.90;5.90;;;;;;;21.46;42.15;99348.85;215124;1272;139866;-64
2022/09/08 16:21:26;;;;;;;10.20;6.50;;;;;;;21.39;42.47;99332.71;214909;1274;142083;-64
2022/09/08 16:26:55;;;;;;;12.70;6.00;;;;;;;21.29;42.50;99322.00;214578;1274;141559;-64
2022/09/08 16:32:12;;;;;;;7.80;4.90;;;;;;;21.13;42.67;99321.71;213302;1275;141796;-63
2022/09/08 16:37:30;;;;;;;6.40;5.20;;;;;;;20.99;42.69;99323.41;213635;1274;140868;-63
2022/09/08 16:42:46;;;;;;;8.20;5.30;;;;;;;20.84;43.01;99318.98;214018;1274;140185;-62
2022/09/08 16:48:00;;;;;;;9.60;5.40;;;;;;;20.67;43.12;99322.23;213808;1274;142158;-65
2022/09/08 16:53:17;;;;;;;7.10;4.40;;;;;;;20.54;43.19;99315.52;213092;1274;140312;-63
2022/09/08 16:58:41;;;;;;;11.90;5.50;;;;;;;20.40;43.52;99319.50;214116;1275;139714;-65
2022/09/08 17:03:52;;;;;;;7.50;4.90;;;;;;;20.27;43.57;99321.04;214748;1274;139656;-65
2022/09/08 17:09:13;;;;;;;9.40;6.70;;;;;;;20.19;43.74;99325.19;214445;1274;140901;-64
2022/09/08 17:14:19;;;;;;;16.50;5.90;;;;;;;20.11;43.87;99326.21;213332;1275;144872;-62
2022/09/08 17:19:39;;;;;;;6.50;5.00;;;;;;;20.05;43.79;99332.04;214412;1273;142310;-64
2022/09/08 17:25:06;;;;;;;17.30;6.70;;;;;;;19.99;43.91;99338.56;215192;1274;139339;-65
2022/09/08 17:30:20;;;;;;;17.30;5.90;;;;;;;19.92;44.04;99340.60;214023;1274;139690;-64
2022/09/08 17:35:54;;;;;;;10.00;5.60;;;;;;;19.86;43.98;99327.16;213511;1274;139786;-65
2022/09/08 17:41:28;;;;;;;14.40;5.80;;;;;;;19.81;43.99;99319.65;214895;1274;140599;-65
2022/09/08 17:46:47;;;;;;;23.70;5.70;;;;;;;19.78;44.18;99322.70;216101;1273;140740;-65
2022/09/08 17:52:04;;;;;;;10.90;6.50;;;;;;;19.64;45.73;99342.68;214766;1272;141420;-65
2022/09/08 17:57:13;;;;;;;8.30;6.40;;;;;;;19.32;46.97;99351.23;215829;1272;142253;-65
2022/09/08 18:02:38;;;;;;;10.50;5.40;;;;;;;19.05;48.32;99351.11;214711;1274;140926;-65
2022/09/08 18:08:11;;;;;;;7.80;6.40;;;;;;;18.84;48.72;99374.27;214946;1272;143443;-65
2022/09/08 18:13:23;;;;;;;9.10;5.60;;;;;;;18.73;49.38;99415.86;215364;1273;139895;-65
2022/09/08 18:18:36;;;;;;;12.40;5.70;;;;;;;18.64;50.55;99474.70;214659;1274;139783;-65
2022/09/08 18:23:42;;;;;;;8.90;6.00;;;;;;;18.49;51.34;99490.63;214839;1274;142095;-65
2022/09/08 18:29:09;;;;;;;8.70;6.60;;;;;;;18.40;52.46;99475.04;215144;1274;140650;-66
2022/09/08 18:34:17;;;;;;;13.60;7.10;;;;;;;18.11;54.07;99492.40;214447;1272;142417;-65
2022/09/08 18:39:43;;;;;;;12.00;6.10;;;;;;;17.86;55.49;99524.81;214320;1274;141314;-65
2022/09/08 18:45:05;;;;;;;8.70;6.90;;;;;;;17.70;56.93;99523.46;213525;1272;140872;-66
2022/09/08 18:50:58;;;;;;;8.50;6.50;;;;;;;17.57;57.90;99521.86;214679;1274;141558;-66
2022/09/08 18:56:15;;;;;;;13.50;7.50;;;;;;;17.37;59.13;99516.09;213618;1274;140953;-66
2022/09/08 19:02:06;;;;;;;11.50;7.20;;;;;;;17.24;60.37;99522.24;213300;1274;141893;-66
2022/09/08 19:07:53;;;;;;;13.90;7.00;;;;;;;17.16;61.43;99511.85;213680;1274;140711;-66
2022/09/08 19:13:31;;;;;;;9.60;7.50;;;;;;;17.13;62.17;99505.20;213502;1273;142978;-65
2022/09/08 19:18:47;;;;;;;10.00;7.50;;;;;;;17.05;62.91;99498.07;213841;1274;141974;-66
2022/09/08 19:24:06;;;;;;;11.50;7.50;;;;;;;16.91;63.49;99490.91;213563;1274;141075;-66
2022/09/08 19:29:29;;;;;;;11.20;7.80;;;;;;;16.83;64.07;99478.85;213509;1274;141839;-66
2022/09/08 19:34:59;;;;;;;10.50;7.10;;;;;;;16.82;64.42;99460.90;212852;1273;140885;-66
2022/09/08 19:40:08;;;;;;;13.70;7.90;;;;;;;16.73;64.69;99440.84;214926;1272;141129;-67
2022/09/08 19:45:55;;;;;;;11.90;8.50;;;;;;;16.59;64.77;99428.48;215464;1273;140827;-67
2022/09/08 19:51:09;;;;;;;12.90;8.30;;;;;;;16.47;65.29;99422.13;216260;1272;140236;-67
2022/09/08 19:56:18;;;;;;;16.80;9.10;;;;;;;16.41;65.31;99410.50;215753;1272;141610;-66
2022/09/08 20:01:42;;;;;;;13.90;7.60;;;;;;;16.37;65.54;99403.42;215300;1272;140538;-66
2022/09/08 20:07:01;;;;;;;13.60;8.80;;;;;;;16.27;65.75;99395.31;215463;1273;141214;-66
2022/09/08 20:12:28;;;;;;;7.90;7.10;;;;;;;16.17;66.08;99386.08;215879;1273;140549;-65
2022/09/08 20:17:36;;;;;;;9.40;7.40;;;;;;;16.12;66.31;99389.83;215725;1273;140321;-66
2022/09/08 20:22:58;;;;;;;7.60;6.80;;;;;;;16.07;66.44;99401.69;215268;1273;140846;-66
2022/09/08 20:28:43;;;;;;;10.00;6.10;;;;;;;15.98;66.70;99392.81;214146;1273;139311;-65
2022/09/08 20:34:06;;;;;;;13.50;7.70;;;;;;;15.86;66.95;99415.74;213700;1273;141136;-66
2022/09/08 20:39:48;;;;;;;13.20;8.60;;;;;;;15.76;67.16;99438.52;213628;1273;140852;-66
2022/09/08 20:45:07;;;;;;;10.30;7.00;;;;;;;15.70;67.46;99434.03;214335;1273;140853;-66
2022/09/08 20:50:25;;;;;;;9.70;6.60;;;;;;;15.67;67.78;99432.16;214499;1272;140963;-67
2022/09/08 20:55:33;;;;;;;10.90;7.50;;;;;;;15.60;68.10;99432.30;214777;1273;140225;-66
2022/09/08 21:00:38;;;;;;;9.60;7.10;;;;;;;15.54;68.18;99434.47;213602;1273;140281;-66
2022/09/08 21:05:43;;;;;;;11.40;6.70;;;;;;;15.48;68.45;99437.96;213528;1273;140879;-66
2022/09/08 21:11:13;;;;;;;12.20;7.20;;;;;;;15.38;68.63;99447.77;213624;1273;139910;-66
2022/09/08 21:16:28;;;;;;;7.50;6.10;;;;;;;15.26;68.93;99444.32;213819;1274;140507;-66
2022/09/08 21:21:43;;;;;;;10.60;8.40;;;;;;;15.12;69.02;99441.71;214909;1274;140337;-65
2022/09/08 21:27:35;;;;;;;9.70;7.40;;;;;;;15.09;69.51;99439.98;214682;1273;142310;-66
2022/09/08 21:33:05;;;;;;;9.90;7.00;;;;;;;15.11;69.58;99438.91;214188;1273;141379;-65
2022/09/08 21:38:41;;;;;;;9.50;8.20;;;;;;;15.15;69.96;99441.76;215405;1272;141382;-66
2022/09/08 21:43:52;;;;;;;9.50;8.20;;;;;;;15.16;70.03;99444.06;215105;1273;139645;-66
2022/09/08 21:48:56;;;;;;;8.70;7.70;;;;;;;15.12;70.06;99441.17;214505;1274;140871;-66
2022/09/08 21:54:05;;;;;;;9.00;7.80;;;;;;;15.09;70.34;99444.17;216232;1273;140638;-66
2022/09/08 21:59:21;;;;;;;14.10;9.80;;;;;;;15.07;70.50;99437.20;215541;1273;141339;-66
2022/09/08 22:04:36;;;;;;;9.40;8.40;;;;;;;15.09;70.82;99436.39;214760;1273;140379;-66
2022/09/08 22:09:48;;;;;;;11.80;9.80;;;;;;;15.05;70.98;99439.34;214845;1272;139995;-65
2022/09/08 22:15:15;;;;;;;13.30;9.50;;;;;;;15.06;71.27;99437.15;215300;1274;141561;-66
2022/09/08 22:20:26;;;;;;;9.70;8.60;;;;;;;15.08;71.49;99435.26;214604;1273;141144;-66
2022/09/08 22:26:13;;;;;;;12.50;8.20;;;;;;;15.09;71.25;99436.34;214332;1274;140338;-66
2022/09/08 22:31:43;;;;;;;11.90;8.60;;;;;;;15.10;71.62;99440.58;214201;1273;141684;-66
2022/09/08 22:37:24;;;;;;;10.60;8.10;;;;;;;15.09;71.63;99431.66;214044;1274;140267;-66
2022/09/08 22:42:42;;;;;;;10.90;8.50;;;;;;;15.04;71.76;99429.20;214255;1273;140190;-66
2022/09/08 22:47:54;;;;;;;12.00;8.50;;;;;;;15.00;71.89;99423.67;213550;1274;140983;-65
2022/09/08 22:53:29;;;;;;;8.40;7.40;;;;;;;14.95;72.03;99421.66;214255;1274;141058;-66
2022/09/08 22:58:43;;;;;;;10.50;8.40;;;;;;;14.94;72.28;99421.55;214305;1274;140143;-65
2022/09/08 23:03:59;;;;;;;9.00;7.00;;;;;;;14.84;72.19;99420.22;214081;1274;141750;-66
2022/09/08 23:09:11;;;;;;;9.40;8.10;;;;;;;14.77;72.47;99416.41;213713;1274;140246;-66
2022/09/08 23:14:45;;;;;;;13.10;7.90;;;;;;;14.71;72.27;99410.56;213362;1274;140487;-66
2022/09/08 23:20:04;;;;;;;9.90;7.60;;;;;;;14.57;72.43;99409.23;213983;1274;143462;-66
2022/09/08 23:25:13;;;;;;;8.70;7.10;;;;;;;14.41;72.51;99413.30;214495;1274;141269;-66
2022/09/08 23:30:23;;;;;;;9.80;8.10;;;;;;;14.26;72.75;99419.48;215202;1274;140549;-66
2022/09/08 23:35:28;;;;;;;12.60;8.00;;;;;;;14.12;73.07;99417.27;213328;1272;142245;-66
2022/09/08 23:40:39;;;;;;;11.30;7.10;;;;;;;14.03;73.32;99424.80;215110;1272;140603;-65
2022/09/08 23:45:52;;;;;;;9.80;7.90;;;;;;;13.94;73.68;99423.45;216310;1274;152050;-66
2022/09/08 23:51:00;;;;;;;8.70;7.70;;;;;;;13.95;73.77;99420.66;216421;1273;142293;-66
2022/09/08 23:56:17;;;;;;;7.90;6.10;;;;;;;14.00;73.92;99423.09;216235;1273;141666;-66
